createdAt,value
2018-12-10T00:02:27.024Z,12.47
2018-12-10T00:07:15.776Z,14.20
2018-12-10T00:12:01.177Z,18.93
2018-12-10T00:16:46.942Z,20.77
2018-12-10T00:21:33.348Z,18.77
2018-12-10T00:26:19.075Z,19.30
2018-12-10T00:31:03.507Z,17.57
2018-12-10T00:35:48.617Z,15.03
2018-12-10T00:40:35.007Z,15.10
2018-12-10T00:45:20.078Z,16.50
2018-12-10T00:50:06.703Z,29.47
2018-12-10T00:54:51.476Z,17.67
2018-12-10T00:59:37.233Z,19.33
2018-12-10T01:04:26.696Z,20.47
2018-12-10T01:09:12.673Z,18.57
2018-12-10T01:13:58.404Z,18.67
2018-12-10T01:18:42.796Z,18.53
2018-12-10T01:23:27.526Z,21.07
2018-12-10T01:28:13.374Z,22.70
2018-12-10T01:32:57.588Z,22.60
2018-12-10T01:37:43.795Z,17.73
2018-12-10T01:42:27.935Z,20.70
2018-12-10T01:47:13.821Z,17.97
2018-12-10T01:51:59.018Z,15.63
2018-12-10T01:56:43.585Z,14.03
2018-12-10T02:01:29.216Z,11.30
2018-12-10T02:06:13.635Z,10.57
2018-12-10T02:11:00.578Z,11.53
2018-12-10T02:15:45.033Z,9.90
2018-12-10T02:20:30.991Z,10.20
2018-12-10T02:25:16.204Z,10.93
2018-12-10T02:30:00.853Z,13.50
2018-12-10T02:34:47.576Z,13.70
2018-12-10T02:39:32.247Z,11.90
2018-12-10T02:44:18.208Z,21.60
2018-12-10T02:49:03.964Z,17.50
2018-12-10T02:53:50.088Z,13.83
2018-12-10T02:58:35.326Z,14.47
2018-12-10T03:03:19.541Z,15.47
2018-12-10T03:08:07.693Z,14.67
2018-12-10T03:12:52.149Z,14.47
2018-12-10T03:17:38.092Z,15.50
2018-12-10T03:22:22.226Z,16.37
2018-12-10T03:27:07.644Z,19.43
2018-12-10T03:31:53.667Z,51.63
2018-12-10T03:36:38.768Z,21.07
2018-12-10T03:41:23.529Z,21.47
2018-12-10T03:46:08.880Z,22.13
2018-12-10T03:50:54.124Z,18.57
2018-12-10T03:55:39.406Z,16.13
2018-12-10T04:00:23.975Z,16.67
2018-12-10T04:05:09.460Z,20.80
2018-12-10T04:09:55.190Z,18.97
2018-12-10T04:14:39.373Z,18.53
2018-12-10T04:19:27.552Z,18.27
2018-12-10T04:24:12.504Z,17.63
2018-12-10T04:28:58.830Z,19.43
2018-12-10T04:33:44.172Z,14.47
2018-12-10T04:38:30.165Z,15.80
2018-12-10T04:43:15.652Z,19.93
2018-12-10T04:48:02.327Z,16.23
2018-12-10T04:52:46.554Z,30.20
2018-12-10T04:57:32.168Z,17.03
2018-12-10T05:02:17.430Z,14.60
2018-12-10T05:07:03.015Z,12.70
2018-12-10T05:11:48.128Z,16.23
2018-12-10T05:16:34.176Z,15.90
2018-12-10T05:21:19.833Z,12.60
2018-12-10T05:26:04.008Z,12.10
2018-12-10T05:30:49.151Z,17.30
2018-12-10T05:35:34.351Z,16.13
2018-12-10T05:40:20.134Z,18.67
2018-12-10T05:45:07.251Z,17.67
2018-12-10T05:49:51.771Z,17.40
2018-12-10T05:59:51.225Z,32.97
2018-12-10T06:04:37.026Z,29.93
2018-12-10T06:09:22.479Z,26.03
2018-12-10T06:14:08.109Z,29.10
2018-12-10T06:18:53.576Z,37.70
2018-12-10T06:28:20.000Z,18.40
2018-12-10T06:33:04.060Z,23.00
2018-12-10T06:37:53.199Z,19.83
2018-12-10T06:42:39.932Z,21.93
2018-12-10T06:47:24.472Z,18.87
2018-12-10T06:52:10.232Z,20.30
2018-12-10T06:56:55.620Z,22.97
2018-12-10T07:01:41.839Z,34.53
2018-12-10T07:06:28.345Z,35.17
2018-12-10T07:11:13.491Z,34.17
2018-12-10T07:15:58.911Z,58.70
2018-12-10T07:20:44.044Z,59.17
2018-12-10T07:25:28.297Z,49.00
2018-12-10T07:30:12.662Z,61.27
2018-12-10T07:34:57.900Z,55.97
2018-12-10T07:39:43.269Z,22.20
2018-12-10T07:44:27.734Z,19.73
2018-12-10T07:49:14.996Z,20.70
2018-12-10T07:53:59.107Z,23.27
2018-12-10T07:58:47.434Z,24.40
2018-12-10T08:03:32.979Z,15.80
2018-12-10T08:08:19.000Z,19.40
2018-12-10T08:13:04.402Z,15.87
2018-12-10T08:17:50.561Z,19.97
2018-12-10T08:22:35.764Z,54.47
2018-12-10T08:27:20.576Z,43.27
2018-12-10T08:32:06.172Z,26.07
2018-12-10T08:36:51.764Z,16.23
2018-12-10T08:41:37.435Z,19.73
2018-12-10T08:46:23.331Z,22.13
2018-12-10T08:51:08.862Z,20.47
2018-12-10T08:55:54.307Z,22.33
2018-12-10T09:00:40.202Z,22.27
2018-12-10T09:05:25.720Z,18.97
2018-12-10T09:10:11.061Z,18.20
2018-12-10T09:14:56.808Z,27.67
2018-12-10T09:19:42.013Z,23.77
2018-12-10T09:24:26.859Z,24.47
2018-12-10T09:29:12.359Z,25.20
2018-12-10T09:33:58.064Z,27.73
2018-12-10T09:38:43.429Z,24.57
2018-12-10T09:43:28.066Z,31.47
2018-12-10T09:48:14.307Z,31.47
2018-12-10T09:52:58.429Z,32.93
2018-12-10T09:57:43.120Z,32.30
2018-12-10T10:02:28.919Z,27.47
2018-12-10T10:07:14.333Z,34.20
2018-12-10T10:11:59.544Z,28.43
2018-12-10T10:16:46.012Z,33.90
2018-12-10T10:21:30.415Z,33.90
2018-12-10T10:26:15.830Z,40.00
2018-12-10T10:31:01.084Z,38.30
2018-12-10T10:35:45.740Z,41.87
2018-12-10T10:40:31.257Z,50.90
2018-12-10T10:45:15.745Z,42.47
2018-12-10T10:50:01.417Z,32.00
2018-12-10T10:54:46.673Z,31.67
2018-12-10T10:59:34.993Z,34.73
2018-12-10T11:04:20.488Z,42.17
2018-12-10T11:09:15.274Z,27.23
2018-12-10T11:14:00.987Z,33.90
2018-12-10T11:18:46.752Z,33.77
2018-12-10T11:23:32.713Z,37.00
2018-12-10T11:28:21.406Z,35.57
2018-12-10T11:33:05.906Z,39.60
2018-12-10T11:37:54.662Z,46.10
2018-12-10T11:42:39.246Z,45.00
2018-12-10T11:47:25.049Z,46.33
2018-12-10T11:52:09.529Z,60.37
2018-12-10T11:56:57.948Z,58.60
2018-12-10T12:01:43.672Z,60.20
2018-12-10T12:06:29.085Z,72.20
2018-12-10T12:11:14.833Z,73.40
2018-12-10T12:16:03.233Z,77.00
2018-12-10T12:20:47.492Z,68.87
2018-12-10T12:25:33.922Z,39.63
2018-12-10T12:30:19.242Z,13.80
2018-12-10T12:35:04.348Z,10.67
2018-12-10T12:39:50.309Z,10.80
2018-12-10T12:44:35.196Z,10.63
2018-12-10T12:49:24.266Z,8.00
2018-12-10T12:54:09.964Z,7.17
2018-12-10T12:58:55.899Z,6.33
2018-12-10T13:03:41.797Z,8.10
2018-12-10T13:08:31.046Z,12.90
2018-12-10T13:13:16.349Z,11.07
2018-12-10T13:18:03.228Z,12.17
2018-12-10T13:22:48.405Z,11.27
2018-12-10T13:27:34.205Z,10.90
2018-12-10T13:32:25.407Z,10.70
2018-12-10T13:37:09.969Z,8.53
2018-12-10T13:41:54.249Z,10.07
2018-12-10T13:46:41.865Z,10.87
2018-12-10T13:51:26.011Z,11.30
2018-12-10T13:56:14.833Z,9.07
2018-12-10T14:00:59.684Z,10.50
2018-12-10T14:05:47.642Z,15.47
2018-12-10T14:10:33.073Z,10.47
2018-12-10T14:15:20.108Z,11.73
2018-12-10T14:20:06.875Z,20.37
2018-12-10T14:24:53.417Z,15.20
2018-12-10T14:29:38.059Z,10.90
2018-12-10T14:34:25.556Z,11.63
2018-12-10T14:39:12.370Z,11.43
2018-12-10T14:43:57.441Z,11.30
2018-12-10T14:48:42.877Z,11.43
2018-12-10T14:53:31.193Z,10.97
2018-12-10T14:58:16.049Z,10.87
2018-12-10T15:03:00.333Z,11.10
2018-12-10T15:07:49.718Z,10.10
2018-12-10T15:12:34.187Z,12.50
2018-12-10T15:17:19.103Z,14.63
2018-12-10T15:22:04.749Z,16.13
2018-12-10T15:26:49.960Z,17.07
2018-12-10T15:31:35.218Z,15.63
2018-12-10T15:36:21.406Z,18.33
2018-12-10T15:41:07.649Z,19.03
2018-12-10T15:45:52.925Z,26.97
2018-12-10T15:50:38.522Z,24.83
2018-12-10T15:55:23.991Z,27.37
2018-12-10T16:00:10.345Z,17.77
2018-12-10T16:04:55.605Z,30.47
2018-12-10T16:09:40.139Z,15.83
2018-12-10T16:14:25.991Z,32.07
2018-12-10T16:19:11.278Z,20.63
2018-12-10T16:23:56.076Z,13.80
2018-12-10T16:28:45.116Z,10.90
2018-12-10T16:33:29.353Z,11.17
2018-12-10T16:38:15.225Z,11.97
2018-12-10T16:43:00.445Z,12.27
2018-12-10T16:47:45.239Z,10.10
2018-12-10T16:52:30.515Z,10.87
2018-12-10T16:57:16.743Z,10.13
2018-12-10T17:02:02.113Z,11.53
2018-12-10T17:06:47.928Z,10.13
2018-12-10T17:11:33.785Z,11.60
2018-12-10T17:16:19.261Z,11.47
2018-12-10T17:21:03.629Z,14.43
2018-12-10T17:25:51.552Z,13.47
2018-12-10T17:30:36.789Z,16.43
2018-12-10T17:35:24.377Z,13.53
2018-12-10T17:40:10.078Z,15.70
2018-12-10T17:44:56.250Z,12.53
2018-12-10T17:49:41.696Z,11.17
2018-12-10T17:54:27.457Z,17.60
2018-12-10T17:59:12.718Z,24.60
2018-12-10T18:03:59.150Z,10.97
2018-12-10T18:08:45.623Z,9.87
2018-12-10T18:13:31.297Z,10.27
2018-12-10T18:18:20.609Z,11.57
2018-12-10T18:23:05.133Z,12.67
2018-12-10T18:27:51.734Z,12.17
2018-12-10T18:32:36.158Z,17.13
2018-12-10T18:37:22.535Z,15.97
2018-12-10T18:42:08.306Z,12.43
2018-12-10T18:46:53.927Z,13.03
2018-12-10T18:51:38.634Z,32.53
2018-12-10T18:56:25.061Z,17.73
2018-12-10T19:01:14.741Z,11.33
2018-12-10T19:06:01.545Z,12.77
2018-12-10T19:10:50.839Z,13.30
2018-12-10T19:15:36.704Z,12.30
2018-12-10T19:20:27.381Z,11.53
2018-12-10T19:25:13.338Z,14.10
2018-12-10T19:29:59.121Z,13.03
2018-12-10T19:34:45.172Z,11.30
2018-12-10T19:39:30.438Z,11.67
2018-12-10T19:44:19.074Z,13.60
2018-12-10T19:49:04.220Z,12.40
2018-12-10T19:53:51.002Z,13.93
2018-12-10T19:58:35.724Z,13.77
2018-12-10T20:03:21.387Z,12.00
2018-12-10T20:08:06.738Z,12.70
2018-12-10T20:12:50.886Z,11.53
2018-12-10T20:17:38.032Z,11.07
2018-12-10T20:22:24.179Z,10.97
2018-12-10T20:27:08.971Z,12.20
2018-12-10T20:31:55.290Z,12.30
2018-12-10T20:36:43.138Z,13.37
2018-12-10T20:41:28.519Z,12.27
2018-12-10T20:46:15.759Z,10.97
2018-12-10T20:51:02.241Z,10.93
2018-12-10T20:55:47.506Z,11.50
2018-12-10T21:00:32.772Z,11.30
2018-12-10T21:05:18.664Z,10.80
2018-12-10T21:10:04.774Z,11.13
2018-12-10T21:14:50.225Z,11.47
2018-12-10T21:19:35.499Z,11.20
2018-12-10T21:24:21.026Z,11.30
2018-12-10T21:29:06.290Z,11.57
2018-12-10T21:33:51.536Z,11.87
2018-12-10T21:38:36.765Z,11.70
2018-12-10T21:43:20.933Z,12.90
2018-12-10T21:48:06.333Z,13.77
2018-12-10T21:52:51.532Z,21.40
2018-12-10T21:57:40.203Z,20.90
2018-12-10T22:02:26.306Z,11.23
2018-12-10T22:07:11.748Z,12.80
2018-12-10T22:11:56.953Z,13.07
2018-12-10T22:16:42.301Z,14.77
2018-12-10T22:21:27.556Z,15.17
2018-12-10T22:26:15.628Z,12.93
2018-12-10T22:31:00.782Z,12.73
2018-12-10T22:35:47.217Z,12.90
2018-12-10T22:40:32.432Z,16.00
2018-12-10T22:45:18.712Z,13.83
2018-12-10T22:55:00.157Z,14.57
2018-12-10T22:59:45.557Z,15.77
2018-12-10T23:04:30.876Z,16.33
2018-12-10T23:09:15.109Z,17.33
2018-12-10T23:14:00.381Z,17.17
2018-12-10T23:18:45.575Z,16.97
2018-12-10T23:23:30.895Z,14.13
2018-12-10T23:28:16.122Z,18.07
2018-12-10T23:33:01.344Z,18.47
2018-12-10T23:37:46.415Z,15.73
2018-12-10T23:42:30.633Z,16.97
2018-12-10T23:47:15.919Z,18.10
2018-12-10T23:52:01.139Z,18.27
2018-12-10T23:56:46.650Z,16.93
